createdAt,value
2022-11-16T00:00:06.128Z,4.10
2022-11-16T00:02:29.130Z,3.27
2022-11-16T00:04:51.581Z,2.97
2022-11-16T00:07:13.875Z,2.30
2022-11-16T00:09:36.277Z,2.70
2022-11-16T00:11:59.790Z,2.90
2022-11-16T00:14:22.584Z,3.50
2022-11-16T00:16:45.033Z,4.00
2022-11-16T00:19:07.763Z,4.33
2022-11-16T00:21:30.219Z,4.70
2022-11-16T00:23:52.400Z,5.30
2022-11-16T00:26:14.970Z,5.17
2022-11-16T00:28:37.368Z,5.77
2022-11-16T00:31:03.772Z,5.70
2022-11-16T00:33:25.995Z,5.67
2022-11-16T00:35:48.187Z,3.53
2022-11-16T00:38:10.416Z,2.43
2022-11-16T00:40:32.801Z,1.47
2022-11-16T00:42:55.182Z,1.90
2022-11-16T00:45:17.786Z,2.47
2022-11-16T00:47:39.975Z,2.60
2022-11-16T00:50:02.715Z,2.40
2022-11-16T00:52:24.994Z,2.50
2022-11-16T00:54:48.525Z,2.60
2022-11-16T00:57:11.021Z,2.80
2022-11-16T00:59:33.540Z,3.03
2022-11-16T01:01:55.932Z,2.90
2022-11-16T01:04:18.278Z,2.97
2022-11-16T01:06:40.486Z,3.60
2022-11-16T01:09:02.899Z,3.57
2022-11-16T01:11:43.850Z,4.13
2022-11-16T01:14:07.316Z,4.60
2022-11-16T01:16:30.415Z,4.60
2022-11-16T01:18:53.453Z,4.57
2022-11-16T01:21:15.810Z,4.97
2022-11-16T01:23:38.282Z,5.23
2022-11-16T01:26:03.839Z,4.93
2022-11-16T01:28:30.343Z,5.43
2022-11-16T01:30:52.819Z,4.97
2022-11-16T01:33:15.259Z,5.40
2022-11-16T01:35:37.520Z,5.83
2022-11-16T01:37:59.902Z,5.97
2022-11-16T01:40:22.686Z,5.07
2022-11-16T01:42:45.063Z,4.67
2022-11-16T01:45:16.295Z,3.70
2022-11-16T01:47:38.667Z,4.47
2022-11-16T01:50:09.565Z,4.23
2022-11-16T01:52:34.565Z,3.73
2022-11-16T01:54:57.535Z,3.23
2022-11-16T01:57:24.160Z,3.83
2022-11-16T01:59:55.451Z,3.47
2022-11-16T02:02:19.374Z,3.20
2022-11-16T02:04:41.765Z,2.93
2022-11-16T02:07:07.993Z,2.73
2022-11-16T02:09:55.362Z,2.87
2022-11-16T02:12:32.835Z,2.90
2022-11-16T02:15:18.955Z,2.73
2022-11-16T02:17:52.297Z,3.20
2022-11-16T02:20:32.364Z,2.70
2022-11-16T02:23:09.860Z,2.37
2022-11-16T02:25:52.802Z,2.97
2022-11-16T02:28:17.858Z,2.33
2022-11-16T02:30:41.948Z,2.70
2022-11-16T02:33:12.919Z,2.63
2022-11-16T02:35:41.360Z,2.60
2022-11-16T02:38:07.730Z,2.80
2022-11-16T02:40:31.902Z,2.00
2022-11-16T02:42:57.123Z,2.33
2022-11-16T02:45:22.653Z,2.53
2022-11-16T02:47:47.718Z,2.10
2022-11-16T02:50:12.176Z,2.43
2022-11-16T02:52:34.465Z,2.43
2022-11-16T02:54:56.762Z,2.40
2022-11-16T02:57:27.303Z,1.93
2022-11-16T02:59:54.856Z,2.00
2022-11-16T03:02:29.590Z,2.33
2022-11-16T03:04:55.736Z,2.27
2022-11-16T03:07:19.572Z,2.20
2022-11-16T03:09:44.686Z,2.30
2022-11-16T03:12:08.613Z,2.00
2022-11-16T03:14:46.182Z,2.00
2022-11-16T03:17:19.459Z,2.70
2022-11-16T03:19:46.363Z,2.53
2022-11-16T03:22:08.801Z,2.50
2022-11-16T03:24:33.809Z,2.03
2022-11-16T03:27:02.625Z,2.20
2022-11-16T03:29:30.139Z,2.73
2022-11-16T03:31:58.837Z,2.13
2022-11-16T03:34:23.250Z,2.43
2022-11-16T03:36:47.933Z,2.40
2022-11-16T03:39:13.306Z,2.80
2022-11-16T03:41:37.469Z,2.77
2022-11-16T03:44:00.163Z,2.73
2022-11-16T03:46:22.421Z,2.47
2022-11-16T03:48:46.344Z,2.53
2022-11-16T03:51:16.875Z,2.60
2022-11-16T03:53:39.412Z,3.00
2022-11-16T03:56:02.077Z,3.10
2022-11-16T03:58:24.352Z,2.43
2022-11-16T04:00:48.414Z,3.53
2022-11-16T04:03:10.750Z,2.70
2022-11-16T04:05:52.035Z,2.67
2022-11-16T04:08:34.692Z,2.50
2022-11-16T04:11:15.779Z,2.87
2022-11-16T04:13:56.899Z,2.53
2022-11-16T04:16:38.163Z,2.33
2022-11-16T04:19:21.823Z,2.30
2022-11-16T04:22:05.941Z,2.57
2022-11-16T04:24:32.359Z,2.50
2022-11-16T04:27:16.213Z,2.80
2022-11-16T04:29:39.052Z,2.20
2022-11-16T04:32:20.051Z,2.40
2022-11-16T04:35:01.152Z,2.23
2022-11-16T04:37:43.119Z,2.70
2022-11-16T04:40:06.088Z,2.60
2022-11-16T04:42:28.284Z,2.60
2022-11-16T04:45:09.159Z,2.43
2022-11-16T04:47:40.758Z,2.30
2022-11-16T04:50:03.103Z,2.70
2022-11-16T04:52:25.619Z,2.77
2022-11-16T04:54:51.293Z,3.33
2022-11-16T04:57:13.613Z,2.27
2022-11-16T04:59:35.854Z,2.57
2022-11-16T05:02:10.700Z,3.07
2022-11-16T05:04:49.124Z,2.83
2022-11-16T05:07:13.521Z,4.27
2022-11-16T05:09:47.672Z,2.67
2022-11-16T05:12:11.167Z,3.10
2022-11-16T05:14:33.462Z,2.73
2022-11-16T05:16:55.667Z,3.03
2022-11-16T05:19:36.790Z,2.60
2022-11-16T05:21:59.623Z,2.47
2022-11-16T05:24:34.117Z,2.87
2022-11-16T05:26:58.148Z,3.03
2022-11-16T05:29:20.487Z,3.70
2022-11-16T05:31:42.905Z,4.40
2022-11-16T05:34:05.968Z,3.13
2022-11-16T05:36:28.608Z,3.03
2022-11-16T05:38:55.202Z,2.33
2022-11-16T05:41:20.530Z,3.30
2022-11-16T05:43:43.307Z,3.77
2022-11-16T05:46:13.505Z,3.10
2022-11-16T05:48:36.470Z,3.40
2022-11-16T05:51:02.012Z,3.30
2022-11-16T05:53:28.664Z,2.83
2022-11-16T05:55:51.009Z,3.03
2022-11-16T05:58:14.607Z,3.10
2022-11-16T06:00:36.924Z,3.80
2022-11-16T06:02:59.364Z,3.17
2022-11-16T06:05:25.801Z,2.97
2022-11-16T06:07:49.705Z,3.20
2022-11-16T06:10:12.047Z,2.60
2022-11-16T06:12:36.419Z,2.80
2022-11-16T06:14:59.153Z,3.40
2022-11-16T06:17:21.523Z,2.90
2022-11-16T06:19:43.829Z,3.00
2022-11-16T06:22:06.055Z,3.20
2022-11-16T06:24:29.033Z,3.57
2022-11-16T06:26:51.462Z,3.10
2022-11-16T06:29:14.262Z,3.13
2022-11-16T06:31:37.362Z,3.37
2022-11-16T06:33:59.627Z,3.10
2022-11-16T06:36:23.666Z,3.20
2022-11-16T06:38:46.218Z,3.00
2022-11-16T06:41:09.184Z,3.53
2022-11-16T06:43:36.766Z,3.50
2022-11-16T06:45:59.718Z,4.20
2022-11-16T06:48:22.399Z,3.40
2022-11-16T06:50:44.694Z,3.60
2022-11-16T06:53:06.899Z,3.70
2022-11-16T06:55:29.869Z,3.93
2022-11-16T06:57:52.094Z,2.90
2022-11-16T07:00:14.722Z,2.93
2022-11-16T07:02:37.977Z,3.70
2022-11-16T07:05:03.742Z,2.93
2022-11-16T07:07:27.350Z,2.77
2022-11-16T07:09:50.361Z,3.27
2022-11-16T07:12:12.620Z,2.90
2022-11-16T07:14:36.008Z,3.23
2022-11-16T07:17:03.962Z,2.80
2022-11-16T07:19:29.676Z,3.50
2022-11-16T07:21:52.337Z,3.07
2022-11-16T07:24:14.763Z,2.60
2022-11-16T07:26:37.858Z,3.00
2022-11-16T07:29:04.972Z,3.33
2022-11-16T07:31:29.116Z,3.30
2022-11-16T07:34:09.830Z,3.00
2022-11-16T07:36:52.306Z,3.87
2022-11-16T07:39:14.801Z,3.73
2022-11-16T07:41:42.527Z,3.40
2022-11-16T07:44:27.407Z,3.27
2022-11-16T07:47:15.783Z,3.13
2022-11-16T07:49:38.516Z,4.17
2022-11-16T07:52:05.815Z,3.30
2022-11-16T07:54:35.678Z,3.20
2022-11-16T07:56:58.646Z,3.33
2022-11-16T07:59:21.040Z,4.00
2022-11-16T08:01:43.870Z,2.87
2022-11-16T08:04:06.993Z,2.77
2022-11-16T08:06:30.594Z,2.70
2022-11-16T08:08:58.045Z,3.20
2022-11-16T08:11:21.440Z,3.77
2022-11-16T08:13:45.820Z,3.53
2022-11-16T08:16:09.387Z,3.23
2022-11-16T08:18:32.299Z,2.70
2022-11-16T08:20:54.866Z,2.70
2022-11-16T08:23:18.189Z,2.97
2022-11-16T08:25:40.624Z,3.03
2022-11-16T08:28:02.976Z,2.53
2022-11-16T08:30:26.111Z,2.80
2022-11-16T08:32:49.091Z,2.63
2022-11-16T08:35:12.125Z,2.53
2022-11-16T08:37:34.477Z,2.47
2022-11-16T08:39:57.759Z,2.80
2022-11-16T08:42:20.088Z,2.87
2022-11-16T08:44:44.567Z,2.80
2022-11-16T08:47:09.570Z,2.33
2022-11-16T08:49:36.552Z,2.80
2022-11-16T08:51:59.348Z,2.53
2022-11-16T08:54:21.911Z,2.30
2022-11-16T08:56:44.501Z,2.23
2022-11-16T08:59:07.929Z,2.50
2022-11-16T09:01:32.494Z,2.73
2022-11-16T09:03:55.094Z,2.30
2022-11-16T09:06:17.495Z,2.50
2022-11-16T09:08:41.096Z,2.47
2022-11-16T09:11:07.138Z,2.57
2022-11-16T09:13:29.326Z,3.07
2022-11-16T09:15:58.348Z,2.40
2022-11-16T09:18:20.638Z,2.40
2022-11-16T09:20:46.546Z,2.73
2022-11-16T09:23:08.810Z,2.70
2022-11-16T09:25:31.192Z,2.70
2022-11-16T09:27:55.536Z,3.03
2022-11-16T09:30:18.434Z,2.50
2022-11-16T09:32:40.679Z,2.63
2022-11-16T09:35:02.991Z,2.73
2022-11-16T09:37:25.347Z,2.77
2022-11-16T09:39:47.679Z,2.70
2022-11-16T09:42:18.763Z,3.20
2022-11-16T09:44:58.648Z,2.33
2022-11-16T09:47:41.693Z,2.33
2022-11-16T09:50:06.184Z,2.53
2022-11-16T09:52:49.367Z,2.63
2022-11-16T09:55:31.208Z,2.67
2022-11-16T09:57:56.053Z,2.63
2022-11-16T10:00:20.295Z,2.87
2022-11-16T10:02:44.890Z,2.17
2022-11-16T10:05:24.674Z,3.23
2022-11-16T10:07:48.964Z,2.47
2022-11-16T10:10:18.679Z,2.87
2022-11-16T10:12:48.938Z,2.73
2022-11-16T10:15:12.774Z,2.90
2022-11-16T10:17:58.543Z,2.40
2022-11-16T10:20:30.680Z,2.47
2022-11-16T10:23:05.368Z,2.50
2022-11-16T10:25:38.820Z,2.33
2022-11-16T10:28:07.467Z,1.90
2022-11-16T10:30:31.087Z,2.60
2022-11-16T10:33:09.819Z,3.03
2022-11-16T10:35:33.235Z,2.50
2022-11-16T10:37:58.987Z,2.40
2022-11-16T10:40:23.567Z,2.77
2022-11-16T10:42:51.929Z,2.23
2022-11-16T10:45:18.686Z,1.70
2022-11-16T10:47:44.676Z,1.73
2022-11-16T10:50:19.037Z,2.10
2022-11-16T10:52:41.612Z,2.10
2022-11-16T10:55:04.119Z,2.10
2022-11-16T10:57:29.364Z,2.07
2022-11-16T10:59:55.553Z,2.40
2022-11-16T11:02:27.102Z,2.33
2022-11-16T11:05:02.669Z,2.43
2022-11-16T11:07:31.312Z,2.30
2022-11-16T11:09:54.549Z,2.87
2022-11-16T11:12:35.286Z,2.77
2022-11-16T11:15:13.495Z,2.63
2022-11-16T11:17:36.728Z,2.33
2022-11-16T11:20:06.306Z,2.37
2022-11-16T11:22:28.972Z,2.70
2022-11-16T11:24:51.204Z,2.50
2022-11-16T11:27:13.770Z,3.23
2022-11-16T11:29:37.971Z,2.03
2022-11-16T11:32:08.732Z,3.00
2022-11-16T11:34:33.308Z,2.13
2022-11-16T11:36:57.347Z,2.60
2022-11-16T11:39:19.591Z,2.80
2022-11-16T11:41:43.906Z,2.17
2022-11-16T11:44:06.247Z,2.53
2022-11-16T11:46:47.548Z,2.50
2022-11-16T11:49:17.100Z,3.53
2022-11-16T11:51:41.117Z,2.10
2022-11-16T11:54:04.243Z,2.60
2022-11-16T11:56:28.368Z,2.10
2022-11-16T11:58:51.725Z,1.93
2022-11-16T12:01:22.193Z,2.50
2022-11-16T12:04:06.255Z,2.00
2022-11-16T12:06:34.590Z,2.60
2022-11-16T12:08:56.883Z,2.10
2022-11-16T12:11:19.111Z,2.20
2022-11-16T12:13:41.411Z,2.50
2022-11-16T12:16:14.556Z,2.07
2022-11-16T12:18:44.131Z,2.27
2022-11-16T12:21:22.398Z,2.70
2022-11-16T12:24:03.244Z,2.00
2022-11-16T12:26:44.859Z,2.40
2022-11-16T12:29:13.591Z,1.80
2022-11-16T12:32:08.994Z,2.10
2022-11-16T12:34:43.678Z,2.73
2022-11-16T12:37:05.915Z,2.10
2022-11-16T12:39:32.767Z,2.20
2022-11-16T12:41:58.249Z,2.53
2022-11-16T12:44:26.749Z,1.87
2022-11-16T12:47:07.891Z,1.97
2022-11-16T12:49:49.085Z,1.83
2022-11-16T12:52:11.461Z,2.07
2022-11-16T12:55:10.930Z,2.00
2022-11-16T12:57:33.785Z,2.37
2022-11-16T13:00:02.256Z,2.17
2022-11-16T13:02:46.219Z,1.80
2022-11-16T13:05:14.514Z,1.73
2022-11-16T13:07:49.599Z,1.93
2022-11-16T13:10:28.583Z,1.30
2022-11-16T13:13:09.017Z,1.53
2022-11-16T13:15:42.467Z,1.50
2022-11-16T13:18:09.526Z,1.50
2022-11-16T13:20:35.811Z,1.63
2022-11-16T13:23:21.315Z,1.50
2022-11-16T13:25:46.810Z,1.57
2022-11-16T13:28:12.035Z,1.70
2022-11-16T13:30:45.108Z,1.50
2022-11-16T13:33:28.920Z,1.50
2022-11-16T13:35:51.748Z,1.70
2022-11-16T13:38:14.364Z,1.80
2022-11-16T13:40:36.863Z,2.07
2022-11-16T13:43:04.193Z,1.30
2022-11-16T13:45:28.502Z,1.90
2022-11-16T13:47:55.250Z,1.70
2022-11-16T13:50:18.219Z,1.67
2022-11-16T13:53:36.311Z,1.63
2022-11-16T13:55:30.190Z,1.53
2022-11-16T13:57:53.718Z,2.30
2022-11-16T14:00:29.287Z,2.23
2022-11-16T14:03:11.499Z,1.67
2022-11-16T14:05:41.650Z,1.90
2022-11-16T14:08:23.055Z,2.20
2022-11-16T14:10:45.268Z,1.80
2022-11-16T14:13:27.757Z,2.60
2022-11-16T14:16:09.965Z,2.20
2022-11-16T14:18:36.995Z,2.20
2022-11-16T14:21:09.009Z,1.50
2022-11-16T14:23:32.007Z,1.73
2022-11-16T14:26:04.064Z,2.03
2022-11-16T14:28:26.323Z,1.90
2022-11-16T14:30:56.825Z,1.90
2022-11-16T14:33:26.588Z,2.40
2022-11-16T14:35:52.683Z,2.10
2022-11-16T14:38:34.747Z,2.60
2022-11-16T14:40:59.654Z,2.83
2022-11-16T14:43:30.150Z,2.23
2022-11-16T14:45:54.601Z,2.57
2022-11-16T14:48:17.963Z,2.33
2022-11-16T14:50:41.791Z,2.73
2022-11-16T14:53:05.750Z,2.20
2022-11-16T14:55:28.371Z,2.37
2022-11-16T14:58:07.370Z,2.10
2022-11-16T15:00:30.311Z,3.10
2022-11-16T15:03:02.072Z,2.70
2022-11-16T15:05:28.333Z,2.27
2022-11-16T15:08:00.662Z,2.83
2022-11-16T15:10:34.106Z,2.60
2022-11-16T15:12:57.498Z,2.43
2022-11-16T15:15:23.667Z,3.03
2022-11-16T15:18:07.098Z,3.10
2022-11-16T15:20:30.670Z,2.40
2022-11-16T15:22:54.063Z,2.43
2022-11-16T15:25:36.264Z,2.23
2022-11-16T15:28:03.465Z,2.20
2022-11-16T15:30:27.679Z,2.60
2022-11-16T15:32:50.583Z,2.57
2022-11-16T15:35:16.568Z,3.80
2022-11-16T15:37:38.728Z,3.50
2022-11-16T15:40:03.275Z,3.20
2022-11-16T15:42:26.651Z,3.30
2022-11-16T15:44:48.915Z,3.23
2022-11-16T15:47:14.255Z,2.13
2022-11-16T15:49:37.924Z,1.87
2022-11-16T15:52:00.962Z,2.83
2022-11-16T15:54:29.108Z,2.33
2022-11-16T15:56:52.191Z,2.07
2022-11-16T15:59:18.599Z,2.20
2022-11-16T16:01:44.967Z,1.97
2022-11-16T16:04:08.411Z,2.03
2022-11-16T16:06:46.810Z,1.37
2022-11-16T16:09:12.245Z,1.90
2022-11-16T16:11:34.687Z,1.47
2022-11-16T16:13:58.658Z,1.67
2022-11-16T16:16:37.409Z,1.93
2022-11-16T16:19:06.550Z,2.37
2022-11-16T16:21:45.115Z,2.37
2022-11-16T16:24:08.991Z,2.17
2022-11-16T16:26:31.241Z,2.43
2022-11-16T16:28:53.491Z,2.93
2022-11-16T16:31:18.307Z,2.60
2022-11-16T16:33:41.407Z,2.67
2022-11-16T16:36:04.095Z,3.03
2022-11-16T16:38:26.637Z,2.60
2022-11-16T16:40:48.953Z,3.27
2022-11-16T16:43:11.327Z,2.40
2022-11-16T16:45:37.066Z,3.00
2022-11-16T16:47:59.361Z,2.90
2022-11-16T16:50:21.555Z,2.80
2022-11-16T16:52:43.787Z,2.77
2022-11-16T16:55:06.319Z,2.40
2022-11-16T16:57:28.525Z,3.03
2022-11-16T16:59:50.711Z,2.37
2022-11-16T17:02:13.424Z,3.13
2022-11-16T17:04:36.109Z,3.00
2022-11-16T17:06:58.443Z,3.40
2022-11-16T17:09:20.996Z,2.90
2022-11-16T17:11:43.156Z,3.20
2022-11-16T17:14:05.836Z,2.80
2022-11-16T17:16:28.034Z,2.87
2022-11-16T17:18:55.182Z,3.10
2022-11-16T17:21:17.484Z,3.20
2022-11-16T17:23:39.829Z,2.93
2022-11-16T17:26:06.314Z,3.53
2022-11-16T17:28:28.593Z,2.67
2022-11-16T17:30:50.876Z,2.70
2022-11-16T17:33:13.112Z,2.83
2022-11-16T17:35:36.456Z,2.37
2022-11-16T17:37:58.815Z,2.53
2022-11-16T17:40:21.583Z,3.10
2022-11-16T17:42:44.112Z,2.93
2022-11-16T17:45:06.593Z,3.00
2022-11-16T17:47:30.568Z,3.30
2022-11-16T17:49:52.954Z,2.73
2022-11-16T17:52:15.372Z,2.80
2022-11-16T17:54:37.587Z,2.73
2022-11-16T17:56:59.814Z,2.60
2022-11-16T17:59:27.977Z,3.10
2022-11-16T18:01:51.656Z,2.47
2022-11-16T18:04:13.840Z,3.37
2022-11-16T18:06:36.531Z,2.37
2022-11-16T18:08:58.913Z,2.70
2022-11-16T18:11:22.375Z,2.23
2022-11-16T18:13:44.964Z,2.80
2022-11-16T18:16:08.374Z,2.90
2022-11-16T18:18:30.587Z,2.93
2022-11-16T18:20:52.825Z,2.70
2022-11-16T18:23:15.024Z,2.83
2022-11-16T18:25:40.079Z,2.73
2022-11-16T18:28:02.555Z,3.23
2022-11-16T18:30:25.097Z,3.10
2022-11-16T18:32:47.539Z,4.43
2022-11-16T18:35:10.001Z,3.70
2022-11-16T18:37:32.204Z,2.80
2022-11-16T18:39:54.580Z,3.17
2022-11-16T18:42:16.845Z,2.40
2022-11-16T18:44:39.078Z,2.37
2022-11-16T18:47:03.014Z,2.50
2022-11-16T18:49:25.294Z,2.83
2022-11-16T18:51:47.606Z,3.37
2022-11-16T18:54:12.976Z,2.83
2022-11-16T18:56:36.323Z,2.40
2022-11-16T18:58:58.599Z,2.80
2022-11-16T19:01:22.302Z,2.40
2022-11-16T19:03:44.852Z,2.20
2022-11-16T19:06:07.898Z,2.00
2022-11-16T19:08:30.608Z,2.73
2022-11-16T19:10:52.913Z,2.80
2022-11-16T19:13:16.062Z,2.63
2022-11-16T19:15:38.258Z,2.27
2022-11-16T19:18:20.415Z,2.23
2022-11-16T19:20:43.251Z,2.90
2022-11-16T19:23:05.644Z,2.53
2022-11-16T19:25:27.999Z,2.80
2022-11-16T19:27:50.207Z,2.37
2022-11-16T19:30:12.443Z,2.67
2022-11-16T19:32:34.861Z,2.20
2022-11-16T19:34:57.167Z,2.47
2022-11-16T19:37:19.920Z,2.87
2022-11-16T19:39:42.231Z,2.60
2022-11-16T19:42:04.574Z,2.63
2022-11-16T19:44:26.852Z,2.40
2022-11-16T19:46:49.044Z,2.53
2022-11-16T19:49:19.741Z,2.73
2022-11-16T19:51:42.811Z,2.33
2022-11-16T19:54:05.179Z,2.57
2022-11-16T19:56:27.765Z,2.57
2022-11-16T19:58:50.004Z,2.33
2022-11-16T20:01:17.294Z,2.87
2022-11-16T20:03:40.533Z,2.80
2022-11-16T20:06:12.060Z,2.20
2022-11-16T20:08:34.447Z,2.57
2022-11-16T20:10:56.864Z,2.70
2022-11-16T20:13:19.277Z,2.40
2022-11-16T20:15:47.257Z,2.10
2022-11-16T20:18:09.790Z,2.27
2022-11-16T20:20:32.826Z,2.30
2022-11-16T20:22:55.358Z,2.50
2022-11-16T20:25:17.557Z,2.50
2022-11-16T20:27:39.779Z,2.87
2022-11-16T20:30:09.664Z,2.43
2022-11-16T20:32:32.308Z,2.20
2022-11-16T20:34:54.701Z,2.30
2022-11-16T20:37:17.181Z,2.37
2022-11-16T20:39:39.731Z,2.50
2022-11-16T20:42:02.920Z,2.43
2022-11-16T20:44:25.259Z,1.83
2022-11-16T20:46:47.604Z,2.43
2022-11-16T20:49:09.871Z,1.93
2022-11-16T20:51:32.201Z,2.27
2022-11-16T20:53:54.428Z,3.03
2022-11-16T20:56:19.171Z,4.00
2022-11-16T20:58:41.453Z,2.90
2022-11-16T21:01:04.747Z,2.50
2022-11-16T21:03:27.258Z,2.17
2022-11-16T21:05:52.343Z,2.43
2022-11-16T21:08:14.567Z,3.40
2022-11-16T21:10:38.020Z,2.73
2022-11-16T21:13:18.930Z,3.67
2022-11-16T21:15:41.102Z,2.40
2022-11-16T21:18:03.423Z,2.40
2022-11-16T21:20:28.162Z,2.53
2022-11-16T21:22:52.121Z,2.20
2022-11-16T21:25:14.695Z,2.77
2022-11-16T21:27:36.958Z,2.30
2022-11-16T21:29:59.144Z,2.50
2022-11-16T21:32:21.422Z,2.87
2022-11-16T21:34:43.596Z,2.43
2022-11-16T21:37:05.963Z,2.17
2022-11-16T21:39:28.144Z,2.73
2022-11-16T21:41:50.651Z,2.87
2022-11-16T21:44:12.910Z,2.30
2022-11-16T21:46:35.148Z,3.00
2022-11-16T21:48:58.631Z,2.57
2022-11-16T21:51:21.636Z,3.13
2022-11-16T21:53:44.390Z,2.40
2022-11-16T21:56:07.704Z,2.20
2022-11-16T21:58:30.172Z,2.90
2022-11-16T22:00:56.536Z,2.50
2022-11-16T22:03:18.798Z,2.23
2022-11-16T22:05:59.779Z,2.30
2022-11-16T22:08:22.986Z,2.07
2022-11-16T22:10:50.675Z,2.40
2022-11-16T22:13:12.904Z,2.47
2022-11-16T22:15:35.220Z,2.20
2022-11-16T22:17:57.458Z,2.00
2022-11-16T22:20:19.853Z,2.07
2022-11-16T22:22:42.176Z,2.57
2022-11-16T22:25:04.860Z,2.37
2022-11-16T22:27:27.272Z,1.97
2022-11-16T22:29:49.531Z,2.60
2022-11-16T22:32:11.842Z,2.00
2022-11-16T22:34:34.056Z,2.70
2022-11-16T22:36:56.255Z,2.13
2022-11-16T22:39:18.475Z,2.17
2022-11-16T22:41:40.705Z,2.40
2022-11-16T22:44:02.922Z,2.40
2022-11-16T22:46:25.232Z,1.73
2022-11-16T22:48:48.051Z,1.87
2022-11-16T22:51:17.876Z,1.70
2022-11-16T22:53:40.218Z,2.07
2022-11-16T22:56:06.237Z,1.90
2022-11-16T22:58:28.437Z,2.00
2022-11-16T23:00:52.322Z,2.83
2022-11-16T23:03:14.569Z,1.97
2022-11-16T23:05:36.794Z,1.70
2022-11-16T23:07:59.062Z,1.60
2022-11-16T23:10:21.294Z,2.07
2022-11-16T23:13:02.224Z,1.60
2022-11-16T23:15:53.944Z,1.80
2022-11-16T23:18:16.571Z,1.87
2022-11-16T23:20:57.687Z,1.87
2022-11-16T23:23:38.875Z,1.90
2022-11-16T23:26:19.902Z,1.80
2022-11-16T23:28:42.147Z,2.10
2022-11-16T23:31:04.399Z,2.00
2022-11-16T23:33:43.826Z,1.90
2022-11-16T23:36:06.503Z,2.00
2022-11-16T23:38:28.669Z,2.40
2022-11-16T23:40:51.275Z,2.23
2022-11-16T23:43:32.103Z,2.20
2022-11-16T23:45:54.406Z,1.90
2022-11-16T23:48:17.327Z,2.60
2022-11-16T23:50:39.669Z,1.97
2022-11-16T23:53:02.297Z,2.30
2022-11-16T23:55:25.028Z,1.80
2022-11-16T23:57:47.220Z,2.17
